Time;durP1;ratioP1;P1;durP2;ratioP2;P2;SDS_P1;SDS_P2;PMS_P1;PMS_P2;Temp;Humidity;BMP_temperature;BMP_pressure;BME280_temperature;BME280_humidity;BME280_pressure;Samples;Min_cycle;Max_cycle;Signal;HPM_P1;HPM_P2
2022/03/20 00:00:40;;;;;;;27.93;20.00;;;5.20;99.90;;;;;;5017864;28;20186;-82
2022/03/20 00:03:07;;;;;;;27.50;19.57;;;5.10;99.90;;;;;;5017742;28;20663;-82
2022/03/20 00:05:40;;;;;;;28.47;20.07;;;5.10;99.90;;;;;;5020135;28;20218;-81
2022/03/20 00:08:09;;;;;;;24.60;18.50;;;5.10;99.90;;;;;;5020464;28;20242;-82
2022/03/20 00:10:39;;;;;;;28.40;18.90;;;5.10;99.90;;;;;;5017846;28;20186;-82
2022/03/20 00:13:08;;;;;;;25.37;18.87;;;5.00;99.90;;;;;;5018012;28;20199;-82
2022/03/20 00:15:34;;;;;;;25.30;18.87;;;5.00;99.90;;;;;;5017961;28;20183;-82
2022/03/20 00:18:00;;;;;;;29.53;20.23;;;4.90;99.90;;;;;;5017431;28;20215;-82
2022/03/20 00:20:26;;;;;;;25.80;19.37;;;4.90;99.90;;;;;;5017205;28;20182;-81
2022/03/20 00:22:52;;;;;;;25.80;19.97;;;4.90;99.90;;;;;;5017954;28;20195;-81
2022/03/20 00:25:18;;;;;;;27.57;18.43;;;4.80;99.90;;;;;;5017910;28;20188;-81
2022/03/20 00:27:44;;;;;;;28.13;19.87;;;4.80;99.90;;;;;;5017136;28;20223;-81
2022/03/20 00:30:10;;;;;;;23.50;18.20;;;4.90;99.90;;;;;;5019223;28;20242;-81
2022/03/20 00:32:36;;;;;;;31.73;20.10;;;4.80;99.90;;;;;;5017574;28;20564;-81
2022/03/20 00:35:01;;;;;;;31.90;20.50;;;4.70;99.90;;;;;;5017526;28;20183;-82
2022/03/20 00:37:28;;;;;;;29.10;21.07;;;4.70;99.90;;;;;;5018967;28;20291;-82
2022/03/20 00:39:54;;;;;;;28.90;19.83;;;4.70;99.90;;;;;;5018770;28;20188;-82
2022/03/20 00:42:20;;;;;;;31.83;20.17;;;4.70;99.90;;;;;;5018637;28;20249;-81
2022/03/20 00:44:45;;;;;;;32.00;19.63;;;4.60;99.90;;;;;;5015318;28;20597;-81
2022/03/20 00:47:13;;;;;;;27.97;20.00;;;4.60;99.90;;;;;;5015045;28;20291;-81
2022/03/20 00:49:39;;;;;;;27.50;19.53;;;4.60;99.90;;;;;;5016302;28;20171;-82
2022/03/20 00:52:06;;;;;;;28.30;19.93;;;4.60;99.90;;;;;;5016444;28;20186;-82
2022/03/20 00:54:32;;;;;;;27.77;19.93;;;4.60;99.90;;;;;;5015857;28;20179;-82
2022/03/20 00:56:58;;;;;;;28.13;20.33;;;4.50;99.90;;;;;;5015637;28;20715;-82
2022/03/20 00:59:24;;;;;;;25.77;19.27;;;4.50;99.90;;;;;;5016200;28;20283;-82
2022/03/20 01:01:49;;;;;;;29.50;20.53;;;4.40;99.90;;;;;;5016721;28;20190;-82
2022/03/20 01:04:16;;;;;;;28.40;18.87;;;4.40;99.90;;;;;;5016450;28;20202;-82
2022/03/20 01:06:42;;;;;;;30.57;20.53;;;4.40;99.90;;;;;;5017779;28;20218;-82
2022/03/20 01:09:08;;;;;;;27.80;19.70;;;4.40;99.90;;;;;;5016491;28;20187;-82
2022/03/20 01:11:34;;;;;;;29.90;18.77;;;4.30;99.90;;;;;;5018036;28;20184;-82
2022/03/20 01:14:00;;;;;;;30.63;20.53;;;4.40;99.90;;;;;;5017428;28;20272;-82
2022/03/20 01:16:26;;;;;;;30.33;19.90;;;4.40;99.90;;;;;;5018092;28;20204;-82
2022/03/20 01:18:52;;;;;;;27.77;18.53;;;4.40;99.90;;;;;;5017467;28;20208;-82
2022/03/20 01:21:18;;;;;;;27.33;19.67;;;4.40;99.90;;;;;;5016744;28;20653;-82
2022/03/20 01:23:43;;;;;;;28.30;19.73;;;4.30;99.90;;;;;;5017118;28;20227;-82
2022/03/20 01:26:12;;;;;;;27.37;19.00;;;4.30;99.90;;;;;;5017100;28;20741;-82
2022/03/20 01:28:38;;;;;;;30.17;19.30;;;4.30;99.90;;;;;;5017292;28;20229;-82
2022/03/20 01:31:04;;;;;;;26.47;19.60;;;4.30;99.90;;;;;;5016851;28;20184;-82
2022/03/20 01:33:29;;;;;;;27.63;19.40;;;4.30;99.90;;;;;;5017076;28;20184;-82
2022/03/20 01:35:55;;;;;;;28.27;19.53;;;4.20;99.90;;;;;;5020486;28;20214;-82
2022/03/20 01:38:21;;;;;;;29.00;20.37;;;4.20;99.90;;;;;;5020717;28;20218;-82
2022/03/20 01:40:51;;;;;;;28.33;19.97;;;4.10;99.90;;;;;;5020953;28;20608;-82
2022/03/20 01:43:17;;;;;;;28.53;19.77;;;4.10;99.90;;;;;;5021050;28;20188;-82
2022/03/20 01:45:43;;;;;;;26.60;18.27;;;4.10;99.90;;;;;;5022005;28;20194;-81
2022/03/20 01:48:09;;;;;;;32.27;19.73;;;4.10;99.90;;;;;;5020364;28;20666;-81
2022/03/20 01:50:35;;;;;;;25.73;19.37;;;4.10;99.90;;;;;;5021797;28;20635;-81
2022/03/20 01:53:01;;;;;;;27.10;19.50;;;4.10;99.90;;;;;;5020571;28;20187;-81
2022/03/20 01:55:28;;;;;;;29.03;19.37;;;4.10;99.90;;;;;;5022113;28;20239;-81
2022/03/20 01:57:56;;;;;;;28.63;19.30;;;4.10;99.90;;;;;;5018796;28;20686;-81
2022/03/20 02:00:24;;;;;;;26.60;18.57;;;4.00;99.90;;;;;;5017749;28;20228;-82
2022/03/20 02:02:51;;;;;;;28.93;18.63;;;4.00;99.90;;;;;;5018451;28;20215;-82
2022/03/20 02:05:18;;;;;;;29.93;20.17;;;4.00;99.90;;;;;;5018565;28;20311;-82
2022/03/20 02:07:47;;;;;;;27.00;18.67;;;3.90;99.90;;;;;;5019812;28;20238;-82
2022/03/20 02:10:14;;;;;;;29.63;18.93;;;3.90;99.90;;;;;;5020925;28;20215;-82
2022/03/20 02:12:41;;;;;;;30.27;19.93;;;3.90;99.90;;;;;;5022744;28;20639;-82
2022/03/20 02:15:10;;;;;;;35.97;19.83;;;3.90;99.90;;;;;;5027115;28;20184;-81
2022/03/20 02:17:38;;;;;;;31.40;19.97;;;3.90;99.90;;;;;;5026599;28;20214;-81
2022/03/20 02:20:08;;;;;;;27.13;19.60;;;3.90;99.90;;;;;;5024100;28;20230;-82
2022/03/20 02:22:37;;;;;;;24.73;19.03;;;3.90;99.90;;;;;;5020508;28;20176;-81
2022/03/20 02:25:08;;;;;;;25.33;18.93;;;4.00;99.90;;;;;;5019022;28;20206;-81
2022/03/20 02:27:38;;;;;;;30.00;20.10;;;4.00;99.90;;;;;;5002081;28;20295;-82
2022/03/20 02:30:12;;;;;;;27.70;18.97;;;4.00;99.90;;;;;;5017426;28;20176;-81
2022/03/20 02:32:40;;;;;;;31.47;19.20;;;4.10;99.90;;;;;;5017836;28;20180;-81
2022/03/20 02:35:11;;;;;;;26.00;19.33;;;4.10;99.90;;;;;;5018411;28;20646;-82
2022/03/20 02:37:39;;;;;;;31.10;18.63;;;4.10;99.90;;;;;;5018246;28;20242;-82
2022/03/20 02:40:05;;;;;;;29.70;18.57;;;4.20;99.90;;;;;;5018372;28;20183;-82
2022/03/20 02:42:31;;;;;;;27.53;19.37;;;4.20;99.90;;;;;;5019038;28;20172;-82
2022/03/20 02:45:06;;;;;;;27.07;18.70;;;4.20;99.90;;;;;;5016916;28;20182;-81
2022/03/20 02:47:35;;;;;;;26.80;18.20;;;4.20;99.90;;;;;;5018022;28;20195;-82
2022/03/20 02:50:17;;;;;;;28.63;18.70;;;4.30;99.90;;;;;;5019064;28;20186;-82
2022/03/20 02:52:47;;;;;;;29.13;20.33;;;4.30;99.90;;;;;;5019222;28;20167;-82
2022/03/20 02:55:18;;;;;;;26.97;19.07;;;4.30;99.90;;;;;;5001113;28;20203;-82
2022/03/20 02:57:45;;;;;;;24.97;17.90;;;4.30;99.90;;;;;;5017579;28;20215;-82
2022/03/20 03:00:11;;;;;;;27.40;19.73;;;4.30;99.90;;;;;;5017774;28;20180;-82
2022/03/20 03:02:45;;;;;;;28.07;18.67;;;4.30;99.90;;;;;;5020651;28;20175;-82
2022/03/20 03:05:15;;;;;;;27.63;18.23;;;4.30;99.90;;;;;;5024587;28;20172;-82
2022/03/20 03:13:13;;;;;;;25.07;17.53;;;4.30;99.90;;;;;;5024959;28;20171;-82
2022/03/20 03:15:38;;;;;;;23.30;17.63;;;4.30;99.90;;;;;;5023932;28;20176;-82
2022/03/20 03:18:04;;;;;;;27.20;18.03;;;4.30;99.90;;;;;;5024368;28;20214;-82
2022/03/20 03:20:31;;;;;;;26.00;19.00;;;4.30;99.90;;;;;;5024346;28;20180;-82
2022/03/20 03:22:59;;;;;;;28.90;17.70;;;4.30;99.90;;;;;;5025779;28;20200;-83
2022/03/20 03:25:24;;;;;;;27.40;19.03;;;4.30;99.90;;;;;;5024710;28;20653;-83
2022/03/20 03:27:51;;;;;;;27.37;18.70;;;4.30;99.90;;;;;;5022713;28;20271;-81
2022/03/20 03:30:17;;;;;;;26.20;18.40;;;4.30;99.90;;;;;;5022832;28;20321;-81
2022/03/20 03:32:43;;;;;;;27.40;18.20;;;4.30;99.90;;;;;;5022984;28;20187;-82
2022/03/20 03:37:56;;;;;;;29.67;18.83;;;4.30;99.90;;;;;;5024062;28;20209;-83
2022/03/20 03:40:22;;;;;;;26.03;18.60;;;4.30;99.90;;;;;;5023872;28;20230;-83
2022/03/20 03:42:48;;;;;;;28.30;18.23;;;4.30;99.90;;;;;;5022770;28;20176;-82
2022/03/20 03:45:13;;;;;;;27.00;18.33;;;4.20;99.90;;;;;;5023097;28;20186;-82
2022/03/20 03:47:42;;;;;;;26.67;17.40;;;4.20;99.90;;;;;;5022499;28;20222;-82
2022/03/20 03:50:09;;;;;;;25.70;17.63;;;4.30;99.90;;;;;;5022419;28;20761;-82
2022/03/20 03:52:36;;;;;;;27.43;18.93;;;4.30;99.90;;;;;;5023162;28;20187;-82
2022/03/20 03:55:02;;;;;;;31.87;18.93;;;4.20;99.90;;;;;;5023786;28;20600;-83
2022/03/20 03:57:28;;;;;;;26.67;18.87;;;4.20;99.90;;;;;;5023406;28;20200;-82
2022/03/20 03:59:54;;;;;;;28.33;18.63;;;4.20;99.90;;;;;;5023070;28;20210;-82
2022/03/20 04:02:21;;;;;;;28.90;19.67;;;4.10;99.90;;;;;;5022532;28;20634;-82
2022/03/20 04:04:47;;;;;;;28.53;18.83;;;4.10;99.90;;;;;;5022292;28;20268;-82
2022/03/20 04:07:17;;;;;;;26.77;19.37;;;4.10;99.90;;;;;;5022736;28;20717;-83
2022/03/20 04:09:46;;;;;;;29.30;18.97;;;4.10;99.90;;;;;;5022767;28;20223;-82
2022/03/20 04:12:15;;;;;;;27.83;18.83;;;4.10;99.90;;;;;;5022786;28;20179;-82
2022/03/20 04:14:41;;;;;;;29.73;18.73;;;4.10;99.90;;;;;;5023790;28;20630;-82
2022/03/20 04:17:07;;;;;;;26.07;18.47;;;4.00;99.90;;;;;;5022195;28;20206;-82
2022/03/20 04:19:33;;;;;;;27.80;19.67;;;4.00;99.90;;;;;;5024059;28;20199;-82
2022/03/20 04:22:00;;;;;;;28.03;18.27;;;4.00;99.90;;;;;;5022586;28;20199;-83
2022/03/20 04:24:26;;;;;;;30.97;19.23;;;4.00;99.90;;;;;;5021516;28;20219;-82
2022/03/20 04:26:53;;;;;;;26.50;18.17;;;3.90;99.90;;;;;;5021571;28;20195;-82
2022/03/20 04:29:20;;;;;;;28.40;19.17;;;3.90;99.90;;;;;;5021110;28;20219;-83
2022/03/20 04:31:50;;;;;;;24.27;17.53;;;3.90;99.90;;;;;;5015813;28;20187;-82
2022/03/20 04:34:16;;;;;;;25.10;18.30;;;3.90;99.90;;;;;;5016232;28;20255;-82
2022/03/20 04:36:43;;;;;;;23.03;17.37;;;3.90;99.90;;;;;;5018000;28;20192;-81
2022/03/20 04:39:09;;;;;;;26.03;18.80;;;3.90;99.90;;;;;;5017477;28;20207;-82
2022/03/20 04:41:35;;;;;;;23.20;17.93;;;3.90;99.90;;;;;;5018277;28;20175;-82
2022/03/20 04:44:01;;;;;;;26.67;18.47;;;3.80;99.90;;;;;;5018592;28;20183;-82
2022/03/20 04:46:27;;;;;;;28.30;18.27;;;3.80;99.90;;;;;;5018666;28;20227;-82
2022/03/20 04:59:51;;;;;;;24.93;17.20;;;3.80;99.90;;;;;;5023137;28;20657;-82
2022/03/20 05:02:17;;;;;;;28.57;17.57;;;3.80;99.90;;;;;;5022417;28;20175;-82
2022/03/20 05:04:42;;;;;;;22.93;17.77;;;3.80;99.90;;;;;;5021263;28;20552;-82
2022/03/20 05:07:08;;;;;;;26.70;17.90;;;3.80;99.90;;;;;;5022763;28;20216;-81
2022/03/20 05:15:07;;;;;;;25.73;17.73;;;3.70;99.90;;;;;;5027741;28;20174;-82
2022/03/20 05:17:34;;;;;;;26.20;18.40;;;3.60;99.90;;;;;;5026199;28;20206;-81
2022/03/20 05:19:59;;;;;;;31.47;18.67;;;3.60;99.90;;;;;;5023280;28;20179;-81
2022/03/20 05:22:25;;;;;;;24.33;18.27;;;3.60;99.90;;;;;;5022479;28;20176;-81
2022/03/20 05:24:51;;;;;;;26.63;18.70;;;3.60;99.90;;;;;;5020122;28;20263;-81
2022/03/20 05:27:16;;;;;;;23.43;17.83;;;3.60;99.90;;;;;;5018520;28;20203;-81
2022/03/20 05:29:43;;;;;;;25.17;18.03;;;3.60;99.90;;;;;;5017556;28;20183;-81
2022/03/20 05:32:09;;;;;;;28.70;19.03;;;3.50;99.90;;;;;;5022294;28;20216;-81
2022/03/20 05:34:35;;;;;;;27.97;18.03;;;3.50;99.90;;;;;;5027127;28;20180;-81
2022/03/20 05:37:02;;;;;;;28.90;17.30;;;3.50;99.90;;;;;;5029363;28;20196;-81
2022/03/20 05:39:28;;;;;;;23.53;16.70;;;3.40;99.90;;;;;;5029174;28;20199;-81
2022/03/20 05:41:54;;;;;;;26.00;18.30;;;3.30;99.90;;;;;;5022343;28;20258;-81
2022/03/20 05:44:21;;;;;;;23.43;17.93;;;3.30;99.90;;;;;;5019169;28;20176;-81
2022/03/20 05:46:51;;;;;;;29.77;18.07;;;3.30;99.90;;;;;;5017862;28;20206;-81
2022/03/20 05:49:22;;;;;;;26.33;17.63;;;3.20;99.90;;;;;;5018070;28;20270;-81
2022/03/20 05:51:48;;;;;;;24.73;17.33;;;3.20;99.90;;;;;;5019402;28;20160;-81
2022/03/20 05:54:15;;;;;;;25.53;18.13;;;3.10;99.90;;;;;;5017833;28;20211;-81
2022/03/20 05:59:27;;;;;;;25.23;17.30;;;3.10;99.90;;;;;;5018217;28;20202;-81
2022/03/20 06:01:53;;;;;;;25.30;18.10;;;3.10;99.90;;;;;;5017198;28;20552;-81
2022/03/20 06:04:19;;;;;;;23.70;17.73;;;3.10;99.90;;;;;;5017391;28;20180;-81
2022/03/20 06:06:45;;;;;;;25.40;17.80;;;3.10;99.90;;;;;;5017442;28;20226;-81
2022/03/20 06:09:11;;;;;;;28.17;18.23;;;3.10;99.90;;;;;;5019274;28;20176;-81
2022/03/20 06:11:37;;;;;;;26.50;18.07;;;3.10;99.90;;;;;;5019881;28;20234;-81
2022/03/20 06:14:04;;;;;;;27.67;18.73;;;3.10;99.90;;;;;;5021520;28;20183;-81
2022/03/20 06:16:31;;;;;;;22.70;17.70;;;3.10;99.90;;;;;;5020407;28;20207;-81
2022/03/20 06:18:57;;;;;;;24.53;16.70;;;3.10;99.90;;;;;;5018297;28;20200;-81
2022/03/20 06:21:24;;;;;;;24.90;18.20;;;3.20;99.90;;;;;;5016759;28;20180;-81
2022/03/20 06:23:50;;;;;;;28.50;17.27;;;3.20;99.90;;;;;;5020616;28;20177;-81
2022/03/20 06:26:19;;;;;;;27.40;18.07;;;3.30;99.90;;;;;;5027647;28;20195;-81
2022/03/20 06:28:45;;;;;;;25.37;18.50;;;3.30;99.90;;;;;;5028202;28;20184;-81
2022/03/20 06:31:12;;;;;;;25.53;18.93;;;3.30;99.90;;;;;;5030363;28;20176;-81
2022/03/20 06:33:38;;;;;;;26.07;17.47;;;3.30;99.90;;;;;;5023025;28;20724;-81
2022/03/20 06:36:05;;;;;;;27.80;17.70;;;3.30;99.90;;;;;;5018849;28;20259;-81
2022/03/20 06:38:33;;;;;;;28.17;18.00;;;3.30;99.90;;;;;;5017236;28;20239;-81
2022/03/20 06:41:00;;;;;;;22.07;16.93;;;3.40;99.90;;;;;;5016475;28;20271;-81
2022/03/20 06:43:26;;;;;;;28.53;17.33;;;3.30;99.90;;;;;;5016392;28;20706;-81
2022/03/20 06:45:54;;;;;;;21.70;17.53;;;3.30;99.90;;;;;;5016161;28;20204;-81
2022/03/20 06:48:20;;;;;;;25.70;17.77;;;3.30;99.90;;;;;;5016601;28;20175;-81
2022/03/20 06:50:46;;;;;;;25.80;18.27;;;3.40;99.90;;;;;;5016634;28;20182;-81
2022/03/20 06:53:12;;;;;;;28.63;18.30;;;3.30;99.90;;;;;;5017990;28;20225;-81
2022/03/20 06:55:38;;;;;;;24.70;17.83;;;3.30;99.90;;;;;;5017859;28;20184;-81
2022/03/20 06:58:04;;;;;;;24.10;17.67;;;3.40;99.90;;;;;;5016707;28;20207;-81
2022/03/20 07:00:31;;;;;;;25.27;17.63;;;3.50;99.90;;;;;;5016864;28;20179;-81
2022/03/20 07:02:58;;;;;;;25.13;18.17;;;3.50;99.90;;;;;;5016536;28;20267;-79
2022/03/20 07:05:24;;;;;;;26.90;19.20;;;3.70;99.90;;;;;;5015412;28;20230;-79
2022/03/20 07:07:51;;;;;;;29.40;18.90;;;3.80;99.90;;;;;;5016804;28;20203;-79
2022/03/20 07:10:21;;;;;;;25.53;18.23;;;3.90;99.90;;;;;;5015650;28;20271;-79
2022/03/20 07:12:47;;;;;;;25.67;17.50;;;4.00;99.90;;;;;;5015320;28;20172;-79
2022/03/20 07:15:12;;;;;;;23.17;17.67;;;4.00;99.90;;;;;;5017410;28;20182;-77
2022/03/20 07:17:38;;;;;;;29.23;19.17;;;4.10;99.90;;;;;;5017278;28;20235;-77
2022/03/20 07:20:11;;;;;;;28.37;18.97;;;4.10;99.90;;;;;;5016417;28;20222;-77
2022/03/20 07:22:37;;;;;;;25.40;17.73;;;4.30;99.90;;;;;;5016700;28;20171;-77
2022/03/20 07:30:32;;;;;;;22.33;17.07;;;4.90;99.90;;;;;;5016851;28;20641;-77
2022/03/20 07:32:57;;;;;;;24.90;17.80;;;5.10;99.90;;;;;;5015300;28;20184;-77
2022/03/20 07:35:24;;;;;;;25.00;17.57;;;5.10;99.90;;;;;;5014647;28;20542;-78
2022/03/20 07:37:51;;;;;;;24.30;17.10;;;5.20;99.90;;;;;;5014331;28;20621;-78
2022/03/20 07:40:17;;;;;;;24.37;17.93;;;5.30;99.90;;;;;;5015874;28;20672;-78
2022/03/20 07:42:42;;;;;;;26.70;19.40;;;5.30;99.90;;;;;;5014430;28;20203;-78
2022/03/20 07:45:09;;;;;;;26.67;19.27;;;5.30;99.90;;;;;;5014382;28;20179;-77
2022/03/20 07:47:35;;;;;;;32.83;20.47;;;5.40;99.90;;;;;;5014178;28;20195;-77
2022/03/20 07:50:03;;;;;;;29.27;19.60;;;5.40;99.90;;;;;;4998017;28;20176;-78
2022/03/20 07:52:29;;;;;;;26.67;19.13;;;5.50;99.90;;;;;;5015584;28;20179;-78
2022/03/20 07:54:57;;;;;;;26.57;18.03;;;5.50;99.90;;;;;;5014328;28;20214;-77
2022/03/20 07:57:22;;;;;;;25.63;18.50;;;5.60;99.90;;;;;;4997795;28;20204;-77
2022/03/20 07:59:48;;;;;;;27.10;18.33;;;5.70;99.90;;;;;;5015350;28;20704;-77
2022/03/20 08:02:14;;;;;;;29.80;20.67;;;5.80;99.90;;;;;;5015423;28;20178;-77
2022/03/20 08:04:40;;;;;;;28.13;19.77;;;5.90;99.90;;;;;;5014393;28;20184;-77
2022/03/20 08:07:06;;;;;;;24.50;18.27;;;6.00;99.90;;;;;;5013941;28;20270;-77
2022/03/20 08:09:32;;;;;;;27.20;19.27;;;6.10;99.90;;;;;;5015597;28;20540;-77
2022/03/20 08:11:58;;;;;;;30.50;18.77;;;6.20;99.90;;;;;;5015289;28;20179;-77
2022/03/20 08:14:24;;;;;;;26.13;19.33;;;6.30;99.90;;;;;;5014211;28;20251;-77
2022/03/20 08:16:50;;;;;;;28.37;19.53;;;6.40;99.90;;;;;;4997601;28;20572;-77
2022/03/20 08:19:19;;;;;;;26.13;18.77;;;6.50;99.90;;;;;;5015418;28;20207;-77
2022/03/20 08:21:47;;;;;;;28.57;19.53;;;6.60;99.90;;;;;;5014104;28;20203;-77
2022/03/20 08:24:14;;;;;;;26.77;19.03;;;6.60;99.90;;;;;;5015087;28;20175;-77
2022/03/20 08:26:40;;;;;;;27.97;18.07;;;6.70;99.90;;;;;;5016477;28;20200;-77
2022/03/20 08:29:11;;;;;;;28.93;19.43;;;6.80;99.90;;;;;;5016706;28;20309;-77
2022/03/20 08:31:37;;;;;;;25.30;18.70;;;6.90;99.90;;;;;;5014221;28;20179;-77
2022/03/20 08:34:04;;;;;;;29.03;19.67;;;7.00;99.90;;;;;;5014391;28;20187;-77
2022/03/20 08:36:31;;;;;;;28.70;20.77;;;7.10;99.90;;;;;;5015493;28;20188;-77
2022/03/20 08:38:56;;;;;;;29.80;18.93;;;7.20;99.90;;;;;;5013539;28;20211;-77
2022/03/20 08:41:22;;;;;;;27.67;19.50;;;7.30;99.90;;;;;;5013779;28;20292;-78
2022/03/20 08:43:47;;;;;;;26.03;19.60;;;7.50;99.90;;;;;;5014449;28;20247;-78
2022/03/20 08:46:16;;;;;;;29.43;19.77;;;7.60;99.90;;;;;;5015164;28;20566;-78
2022/03/20 08:48:42;;;;;;;27.13;18.53;;;7.70;99.90;;;;;;5014885;28;20198;-78
2022/03/20 08:51:08;;;;;;;24.87;18.53;;;7.80;99.90;;;;;;5015477;28;20650;-78
2022/03/20 08:53:33;;;;;;;27.07;19.23;;;8.00;99.90;;;;;;5015969;28;20180;-78
2022/03/20 08:55:59;;;;;;;27.33;19.13;;;8.20;99.90;;;;;;5015511;28;20539;-78
2022/03/20 08:58:25;;;;;;;32.67;21.33;;;8.40;99.90;;;;;;5014716;28;20290;-78
2022/03/20 09:00:51;;;;;;;30.90;20.10;;;8.80;99.90;;;;;;5015121;28;20184;-78
2022/03/20 09:03:16;;;;;;;27.30;19.60;;;9.20;99.90;;;;;;5013516;28;20179;-78
2022/03/20 09:05:42;;;;;;;27.33;19.87;;;9.40;99.90;;;;;;5014681;28;20358;-78
2022/03/20 09:08:08;;;;;;;30.13;21.03;;;9.50;99.90;;;;;;5013531;28;20262;-78
2022/03/20 09:10:34;;;;;;;30.50;20.47;;;9.70;99.90;;;;;;5013375;28;20184;-78
2022/03/20 09:13:00;;;;;;;28.90;20.27;;;10.10;99.90;;;;;;4997202;28;20556;-78
2022/03/20 09:15:27;;;;;;;31.67;21.73;;;10.60;99.90;;;;;;5013337;28;20215;-78
2022/03/20 09:20:40;;;;;;;30.23;21.70;;;11.70;99.90;;;;;;5015242;28;20166;-78
2022/03/20 09:23:07;;;;;;;30.20;22.13;;;12.20;99.90;;;;;;5015241;28;20581;-78
2022/03/20 09:25:33;;;;;;;35.58;23.38;;;12.70;99.90;;;;;;5013799;28;20207;-78
2022/03/20 09:28:00;;;;;;;33.13;21.63;;;13.00;99.90;;;;;;5013903;28;20229;-78
2022/03/20 09:30:27;;;;;;;33.10;24.35;;;13.20;99.90;;;;;;5015659;28;20266;-78
2022/03/20 09:32:53;;;;;;;33.22;23.55;;;13.10;99.90;;;;;;5014983;28;20225;-78
2022/03/20 09:35:19;;;;;;;34.72;23.05;;;13.10;99.90;;;;;;5012937;28;20216;-78
2022/03/20 09:37:45;;;;;;;35.33;23.10;;;13.10;99.90;;;;;;5014313;28;20203;-78
2022/03/20 09:40:11;;;;;;;36.25;23.95;;;13.00;99.90;;;;;;5014645;28;20175;-78
2022/03/20 09:42:38;;;;;;;33.13;24.15;;;12.80;99.90;;;;;;5015036;28;20173;-78
2022/03/20 09:45:05;;;;;;;33.17;24.10;;;12.50;99.90;;;;;;5014965;28;20172;-78
2022/03/20 09:47:44;;;;;;;35.63;23.67;;;12.40;99.90;;;;;;5014208;28;20257;-78
2022/03/20 09:50:11;;;;;;;34.20;23.33;;;12.30;99.90;;;;;;5014856;28;20168;-78
2022/03/20 09:52:38;;;;;;;34.25;22.50;;;12.00;99.90;;;;;;5015721;28;20179;-79
2022/03/20 09:55:06;;;;;;;34.28;24.20;;;11.90;99.90;;;;;;5014228;28;20226;-78
2022/03/20 09:57:32;;;;;;;34.33;24.50;;;11.90;99.90;;;;;;5016025;28;20206;-78
2022/03/20 10:00:01;;;;;;;33.37;22.23;;;11.90;99.90;;;;;;5016716;28;20184;-78
2022/03/20 10:02:28;;;;;;;37.13;23.92;;;11.70;99.90;;;;;;5016346;28;20678;-78
2022/03/20 10:05:00;;;;;;;35.07;24.50;;;11.60;99.90;;;;;;5017708;28;20176;-78
2022/03/20 10:07:28;;;;;;;31.93;24.30;;;11.30;99.90;;;;;;5017312;28;20295;-78
2022/03/20 10:10:28;;;;;;;36.00;24.50;;;11.20;99.90;;;;;;5016195;28;20179;-79
2022/03/20 10:12:57;;;;;;;35.83;23.83;;;11.10;99.90;;;;;;4974877;28;20188;-79
2022/03/20 10:15:38;;;;;;;41.03;24.17;;;11.10;99.90;;;;;;5017566;28;20652;-79
2022/03/20 10:18:17;;;;;;;33.10;23.60;;;11.20;99.90;;;;;;5016066;28;20204;-78
2022/03/20 10:20:46;;;;;;;33.93;23.77;;;11.10;99.90;;;;;;5018428;28;20182;-78
2022/03/20 10:23:39;;;;;;;36.40;24.50;;;11.10;99.90;;;;;;5019333;28;20183;-78
2022/03/20 10:26:14;;;;;;;36.80;24.20;;;11.20;99.90;;;;;;5018479;28;20186;-78
2022/03/20 10:28:42;;;;;;;36.90;23.57;;;11.20;99.90;;;;;;5017573;28;20186;-78
2022/03/20 10:31:15;;;;;;;35.90;24.17;;;11.30;99.90;;;;;;5019069;28;20211;-78
2022/03/20 10:33:43;;;;;;;33.03;24.17;;;11.40;99.90;;;;;;5017659;28;20243;-78
2022/03/20 10:36:12;;;;;;;36.93;24.50;;;11.30;99.90;;;;;;5017353;28;20215;-78
2022/03/20 10:38:38;;;;;;;33.90;22.80;;;11.20;99.90;;;;;;5018509;28;20211;-78
2022/03/20 10:41:26;;;;;;;33.63;22.63;;;11.10;99.90;;;;;;5016717;28;20183;-78
2022/03/20 10:43:53;;;;;;;35.03;23.53;;;11.20;99.90;;;;;;5016398;28;20179;-79
2022/03/20 10:46:25;;;;;;;36.20;25.03;;;11.20;99.90;;;;;;5016420;28;20286;-78
2022/03/20 10:48:53;;;;;;;35.20;24.37;;;11.20;99.90;;;;;;5017761;28;20178;-78
2022/03/20 10:51:38;;;;;;;34.63;24.23;;;11.10;99.90;;;;;;5016329;28;20187;-78
2022/03/20 10:54:12;;;;;;;35.33;24.63;;;11.10;99.90;;;;;;5016225;28;20174;-78
2022/03/20 10:56:56;;;;;;;33.37;23.87;;;11.10;99.90;;;;;;5017345;28;20274;-78
2022/03/20 10:59:23;;;;;;;34.47;23.93;;;11.20;99.90;;;;;;5016943;28;20184;-78
2022/03/20 11:01:49;;;;;;;36.83;24.73;;;11.30;99.90;;;;;;4999721;28;20179;-78
2022/03/20 11:04:17;;;;;;;35.37;24.33;;;11.40;99.90;;;;;;5017369;28;20172;-78
2022/03/20 11:06:48;;;;;;;33.43;23.83;;;11.40;99.90;;;;;;5018886;28;20207;-78
2022/03/20 11:09:15;;;;;;;35.03;24.00;;;11.50;99.90;;;;;;5017311;28;20191;-78
2022/03/20 11:11:45;;;;;;;35.97;24.00;;;11.70;99.90;;;;;;5017283;28;20199;-78
2022/03/20 11:14:15;;;;;;;36.40;24.23;;;11.70;99.90;;;;;;5015968;28;20180;-78
2022/03/20 11:16:42;;;;;;;31.93;23.20;;;11.90;99.90;;;;;;5017815;28;20184;-79
2022/03/20 11:19:12;;;;;;;33.20;23.60;;;11.90;99.90;;;;;;5016560;28;20207;-79
2022/03/20 11:21:43;;;;;;;32.50;23.60;;;12.00;99.90;;;;;;5017638;28;20175;-79
2022/03/20 11:24:09;;;;;;;35.17;24.00;;;11.90;99.90;;;;;;5017728;28;20686;-79
2022/03/20 11:26:39;;;;;;;37.90;25.07;;;12.10;99.90;;;;;;5015711;28;20259;-79
2022/03/20 11:29:09;;;;;;;34.57;23.47;;;12.20;99.90;;;;;;4999272;28;20219;-79
2022/03/20 11:31:36;;;;;;;36.55;24.17;;;12.50;99.90;;;;;;5015958;28;20270;-79
2022/03/20 11:34:05;;;;;;;34.25;23.15;;;12.60;99.90;;;;;;5017275;28;20229;-79
2022/03/20 11:36:51;;;;;;;36.57;25.53;;;12.90;99.90;;;;;;5016070;28;20673;-78
2022/03/20 11:39:17;;;;;;;32.58;23.48;;;13.20;99.90;;;;;;5001742;28;20396;-78
2022/03/20 11:41:43;;;;;;;35.30;24.00;;;13.50;99.90;;;;;;5015395;28;20249;-79
2022/03/20 11:44:16;;;;;;;32.78;23.73;;;13.70;99.90;;;;;;5015886;28;20183;-79
2022/03/20 11:46:42;;;;;;;33.50;24.17;;;13.80;99.90;;;;;;5015225;28;20282;-79
2022/03/20 11:49:17;;;;;;;37.20;23.75;;;13.80;99.90;;;;;;5016246;28;20727;-79
2022/03/20 11:52:09;;;;;;;33.88;23.75;;;14.00;99.90;;;;;;5000844;28;20645;-79
2022/03/20 11:54:40;;;;;;;35.45;23.75;;;14.20;99.90;;;;;;5017719;28;20187;-79
2022/03/20 11:57:28;;;;;;;35.25;24.52;;;14.30;99.90;;;;;;5017797;28;20195;-79
2022/03/20 12:00:10;;;;;;;33.47;24.50;;;14.50;99.90;;;;;;5016659;28;20199;-80
2022/03/20 12:02:35;;;;;;;37.03;24.42;;;14.60;99.90;;;;;;5016228;28;20158;-79
2022/03/20 12:05:10;;;;;;;34.53;24.55;;;14.90;99.90;;;;;;4998960;28;20176;-79
2022/03/20 12:07:49;;;;;;;32.47;24.13;;;15.10;99.90;;;;;;4999629;28;20203;-79
2022/03/20 12:10:20;;;;;;;35.00;23.92;;;15.50;99.90;;;;;;5016173;28;20168;-80
2022/03/20 12:13:00;;;;;;;38.58;25.50;;;15.90;99.90;;;;;;5015601;28;20195;-80
2022/03/20 12:15:29;;;;;;;34.60;25.08;;;15.90;99.90;;;;;;5016803;28;20202;-80
2022/03/20 12:18:00;;;;;;;35.03;25.13;;;15.90;99.90;;;;;;4998631;28;20647;-80
2022/03/20 12:20:48;;;;;;;36.58;25.48;;;15.60;99.90;;;;;;5014929;28;20270;-79
2022/03/20 12:23:35;;;;;;;36.92;25.48;;;15.50;99.90;;;;;;5000033;28;20176;-79
2022/03/20 12:26:24;;;;;;;33.40;24.83;;;15.30;99.90;;;;;;5016902;28;20203;-79
2022/03/20 12:28:49;;;;;;;38.90;26.13;;;15.00;99.90;;;;;;5016489;28;20236;-79
2022/03/20 12:31:29;;;;;;;33.90;24.05;;;14.70;99.90;;;;;;5015033;28;20176;-79
2022/03/20 12:34:17;;;;;;;36.03;25.20;;;14.70;99.90;;;;;;5015771;28;20532;-79
2022/03/20 12:36:43;;;;;;;37.92;25.02;;;15.20;99.90;;;;;;5015747;28;20223;-79
2022/03/20 12:39:10;;;;;;;35.58;24.52;;;15.30;99.90;;;;;;5014176;28;20667;-78
2022/03/20 12:41:37;;;;;;;33.67;24.10;;;15.20;99.90;;;;;;5014153;28;20275;-78
2022/03/20 12:44:07;;;;;;;35.80;25.02;;;15.00;99.90;;;;;;5015696;28;20267;-78
2022/03/20 12:46:37;;;;;;;37.72;26.60;;;14.60;99.90;;;;;;5014338;28;20192;-78
2022/03/20 12:49:03;;;;;;;37.80;26.20;;;14.70;99.90;;;;;;5015475;28;20264;-78
2022/03/20 12:51:35;;;;;;;34.15;24.60;;;14.60;99.90;;;;;;5015138;28;20650;-78
2022/03/20 12:54:17;;;;;;;39.13;25.05;;;14.50;99.90;;;;;;5014958;28;20214;-78
2022/03/20 12:56:58;;;;;;;35.33;24.00;;;14.40;99.90;;;;;;4997378;28;20200;-78
2022/03/20 12:59:25;;;;;;;36.83;24.63;;;14.40;99.90;;;;;;5015401;28;20587;-78
2022/03/20 13:01:52;;;;;;;39.70;25.80;;;14.30;99.90;;;;;;5014803;28;20264;-78
2022/03/20 13:04:19;;;;;;;40.92;26.48;;;14.20;99.90;;;;;;5014317;28;20665;-78
2022/03/20 13:06:46;;;;;;;39.33;26.40;;;14.30;99.90;;;;;;5013784;28;20302;-78
2022/03/20 13:09:13;;;;;;;38.00;25.13;;;14.50;99.90;;;;;;5014588;28;20179;-79
2022/03/20 13:11:52;;;;;;;34.50;23.90;;;14.80;99.90;;;;;;5014759;28;20537;-79
2022/03/20 13:14:19;;;;;;;33.67;24.35;;;15.20;99.90;;;;;;5016987;28;20156;-80